createdAt,value
2022-09-24T00:00:29.651Z,90.50
2022-09-24T00:03:16.600Z,90.87
2022-09-24T00:05:56.676Z,90.41
2022-09-24T00:08:43.509Z,90.97
2022-09-24T00:11:30.529Z,90.55
2022-09-24T00:14:18.530Z,90.09
2022-09-24T00:16:58.633Z,89.00
2022-09-24T00:19:45.533Z,88.94
2022-09-24T00:22:25.673Z,88.35
2022-09-24T00:25:31.524Z,88.49
2022-09-24T00:28:11.754Z,87.82
2022-09-24T00:30:58.563Z,87.46
2022-09-24T00:33:38.581Z,87.59
2022-09-24T00:36:27.533Z,87.92
2022-09-24T00:39:07.575Z,87.00
2022-09-24T00:41:55.492Z,87.65
2022-09-24T00:44:47.571Z,87.49
2022-09-24T00:47:46.473Z,86.97
2022-09-24T00:50:47.503Z,87.99
2022-09-24T00:53:39.489Z,87.40
2022-09-24T00:56:28.508Z,87.62
2022-09-24T00:59:11.700Z,87.80
2022-09-24T01:02:05.523Z,88.24
2022-09-24T01:04:46.380Z,87.89
2022-09-24T01:07:33.449Z,88.17
2022-09-24T01:10:35.218Z,88.46
2022-09-24T01:13:53.489Z,88.91
2022-09-24T01:17:00.463Z,88.21
2022-09-24T01:19:47.426Z,88.56
2022-09-24T01:23:16.464Z,88.68
2022-09-24T01:26:43.416Z,88.41
2022-09-24T01:29:50.459Z,88.23
2022-09-24T01:33:06.445Z,87.76
2022-09-24T01:36:01.450Z,88.33
2022-09-24T01:38:48.503Z,87.98
2022-09-24T01:41:36.441Z,88.90
2022-09-24T01:44:25.445Z,89.25
2022-09-24T01:47:08.228Z,89.01
2022-09-24T01:49:55.429Z,88.94
2022-09-24T01:52:49.364Z,88.99
2022-09-24T01:55:40.422Z,88.68
2022-09-24T01:58:39.387Z,89.43
2022-09-24T02:01:25.559Z,89.45
2022-09-24T02:04:19.378Z,89.21
2022-09-24T02:07:16.551Z,89.55
2022-09-24T02:10:03.376Z,88.91
2022-09-24T02:12:54.343Z,88.52
2022-09-24T02:15:45.399Z,89.08
2022-09-24T02:18:30.428Z,89.44
2022-09-24T02:21:20.346Z,88.62
2022-09-24T02:24:18.336Z,89.13
2022-09-24T02:27:06.380Z,88.75
2022-09-24T02:29:53.349Z,89.01
2022-09-24T02:32:43.343Z,88.92
2022-09-24T02:35:23.477Z,88.55
2022-09-24T02:38:11.348Z,89.08
2022-09-24T02:40:51.835Z,89.82
2022-09-24T02:43:39.347Z,89.96
2022-09-24T02:46:19.507Z,89.94
2022-09-24T02:49:06.338Z,89.66
2022-09-24T02:51:47.421Z,89.87
2022-09-24T02:54:34.323Z,88.69
2022-09-24T02:57:14.640Z,88.52
2022-09-24T03:00:01.303Z,87.75
2022-09-24T03:02:41.417Z,87.09
2022-09-24T03:05:28.284Z,86.43
2022-09-24T03:26:04.605Z,88.83
2022-09-24T03:28:45.448Z,88.26
2022-09-24T03:31:32.648Z,87.73
2022-09-24T03:34:19.559Z,87.03
2022-09-24T03:36:59.715Z,87.03
2022-09-24T03:39:46.572Z,87.68
2022-09-24T03:42:33.552Z,87.36
2022-09-24T03:45:20.573Z,87.57
2022-09-24T03:48:00.660Z,87.77
2022-09-24T03:50:47.544Z,88.03
2022-09-24T03:53:34.538Z,88.39
2022-09-24T03:56:15.682Z,88.42
2022-09-24T03:59:02.530Z,88.54
2022-09-24T04:01:42.974Z,88.46
2022-09-24T04:04:29.554Z,88.52
2022-09-24T04:07:09.945Z,88.34
2022-09-24T04:09:56.523Z,88.60
2022-09-24T04:12:37.152Z,88.78
2022-09-24T04:15:24.541Z,89.15
2022-09-24T04:18:11.645Z,88.72
2022-09-24T04:20:52.543Z,88.19
2022-09-24T04:23:39.508Z,88.73
2022-09-24T04:26:21.113Z,88.72
2022-09-24T04:29:07.489Z,88.93
2022-09-24T04:31:54.567Z,89.21
2022-09-24T04:34:34.856Z,87.22
2022-09-24T04:37:21.487Z,86.98
2022-09-24T04:40:05.920Z,84.41
2022-09-24T04:42:54.530Z,81.14
2022-09-24T04:45:41.498Z,76.40
2022-09-24T04:48:28.442Z,73.71
2022-09-24T04:51:09.224Z,70.19
2022-09-24T04:53:57.484Z,67.71
2022-09-24T04:56:44.425Z,65.73
2022-09-24T04:59:24.605Z,64.37
2022-09-24T05:02:13.485Z,63.25
2022-09-24T05:04:53.561Z,62.30
2022-09-24T05:07:40.423Z,57.73
2022-09-24T05:10:27.407Z,56.78
2022-09-24T05:13:14.462Z,56.31
2022-09-24T05:16:01.507Z,55.99
2022-09-24T05:18:48.448Z,52.18
2022-09-24T05:21:28.543Z,52.23
2022-09-24T05:24:15.435Z,49.94
2022-09-24T05:27:10.979Z,50.66
2022-09-24T05:29:57.450Z,47.67
2022-09-24T05:32:44.407Z,47.01
2022-09-24T05:35:31.433Z,44.80
2022-09-24T05:38:11.497Z,43.97
2022-09-24T05:40:58.504Z,43.92
2022-09-24T05:43:45.434Z,42.63
2022-09-24T05:46:32.469Z,41.03
2022-09-24T05:49:12.527Z,41.22
2022-09-24T05:51:59.409Z,41.85
2022-09-24T05:54:46.381Z,37.85
2022-09-24T05:57:33.372Z,36.48
2022-09-24T06:00:21.415Z,39.74
2022-09-24T06:03:23.491Z,38.84
2022-09-24T06:06:10.403Z,39.22
2022-09-24T06:08:51.061Z,39.49
2022-09-24T06:11:41.424Z,39.49
2022-09-24T06:14:28.370Z,39.65
2022-09-24T06:17:08.439Z,38.76
2022-09-24T06:19:55.373Z,39.89
2022-09-24T06:22:35.444Z,40.43
2022-09-24T06:25:22.338Z,37.97
2022-09-24T06:28:14.374Z,35.87
2022-09-24T06:30:54.825Z,37.40
2022-09-24T06:33:41.364Z,37.21
2022-09-24T06:36:21.697Z,35.45
2022-09-24T06:39:08.386Z,34.68
2022-09-24T06:41:50.425Z,32.13
2022-09-24T06:44:37.352Z,34.17
2022-09-24T06:47:24.331Z,36.66
2022-09-24T06:50:04.493Z,33.70
2022-09-24T06:52:51.355Z,35.84
2022-09-24T06:55:31.395Z,33.61
2022-09-24T06:58:21.369Z,34.40
2022-09-24T07:01:03.564Z,31.99
2022-09-24T07:03:50.333Z,31.71
2022-09-24T07:06:50.327Z,32.32
2022-09-24T07:09:37.309Z,29.73
2022-09-24T07:12:24.333Z,31.09
2022-09-24T07:15:05.229Z,31.87
2022-09-24T07:17:52.301Z,28.09
2022-09-24T07:20:43.318Z,28.90
2022-09-24T07:23:23.449Z,29.83
2022-09-24T07:26:10.311Z,29.71
2022-09-24T07:28:50.418Z,28.48
2022-09-24T07:31:37.354Z,29.42
2022-09-24T07:34:17.396Z,27.47
2022-09-24T07:37:04.304Z,29.12
2022-09-24T07:39:52.285Z,29.67
2022-09-24T07:42:32.677Z,27.56
2022-09-24T07:45:19.267Z,30.45
2022-09-24T07:48:08.297Z,28.19
2022-09-24T07:50:49.767Z,25.84
2022-09-24T07:53:36.229Z,25.10
2022-09-24T07:56:23.261Z,25.33
2022-09-24T07:59:13.223Z,25.11
2022-09-24T08:01:53.939Z,25.74
2022-09-24T08:04:40.213Z,26.04
2022-09-24T08:07:27.264Z,26.31
2022-09-24T08:10:15.259Z,25.55
2022-09-24T08:12:57.075Z,23.90
2022-09-24T08:15:44.291Z,27.14
2022-09-24T08:18:31.249Z,26.42
2022-09-24T08:21:13.364Z,24.99
2022-09-24T08:24:00.432Z,25.65
2022-09-24T08:26:47.343Z,25.19
2022-09-24T08:29:27.251Z,24.32
2022-09-24T08:32:07.712Z,22.46
2022-09-24T08:34:54.228Z,23.39
2022-09-24T08:37:34.678Z,22.90
2022-09-24T08:40:31.248Z,23.73
2022-09-24T08:43:52.240Z,20.93
2022-09-24T08:47:13.265Z,20.29
2022-09-24T08:50:39.220Z,18.97
2022-09-24T08:53:45.236Z,18.44
2022-09-24T08:56:31.326Z,18.08
2022-09-24T08:59:31.176Z,17.05
2022-09-24T09:02:27.471Z,19.91
2022-09-24T09:05:38.192Z,19.50
2022-09-24T09:08:50.356Z,18.26
2022-09-24T09:11:40.213Z,19.75
2022-09-24T09:14:41.755Z,20.25
2022-09-24T09:17:38.149Z,20.84
2022-09-24T09:20:34.198Z,18.99
2022-09-24T09:23:33.286Z,17.48
2022-09-24T09:26:25.171Z,18.58
2022-09-24T09:29:06.387Z,16.76
2022-09-24T09:32:12.125Z,16.49
2022-09-24T09:34:59.163Z,17.42
2022-09-24T09:37:58.149Z,19.11
2022-09-24T09:41:00.280Z,17.36
2022-09-24T09:43:41.800Z,17.15
2022-09-24T09:46:38.206Z,16.88
2022-09-24T09:49:18.581Z,17.34
2022-09-24T09:52:10.197Z,14.97
2022-09-24T09:54:52.205Z,17.67
2022-09-24T09:57:39.166Z,16.13
2022-09-24T10:00:35.262Z,16.49
2022-09-24T10:04:09.351Z,16.24
2022-09-24T10:06:57.164Z,15.50
2022-09-24T10:09:38.371Z,13.20
2022-09-24T10:12:31.164Z,13.24
2022-09-24T10:15:22.276Z,15.95
2022-09-24T10:18:09.183Z,16.15
2022-09-24T10:20:54.618Z,14.36
2022-09-24T10:23:46.177Z,14.51
2022-09-24T10:26:33.148Z,15.82
2022-09-24T10:29:38.235Z,15.06
2022-09-24T10:32:34.121Z,17.08
2022-09-24T10:35:47.143Z,16.31
2022-09-24T10:38:31.724Z,17.37
2022-09-24T10:41:36.132Z,16.59
2022-09-24T10:44:18.244Z,15.04
2022-09-24T10:47:33.111Z,16.70
2022-09-24T10:50:30.186Z,14.38
2022-09-24T10:53:26.099Z,14.88
2022-09-24T10:56:28.119Z,14.09
2022-09-24T10:59:28.087Z,13.56
2022-09-24T11:02:27.142Z,14.62
2022-09-24T11:05:21.572Z,17.58
2022-09-24T11:08:36.093Z,18.78
2022-09-24T11:11:46.177Z,16.53
2022-09-24T11:15:21.992Z,16.28
2022-09-24T11:18:43.062Z,15.70
2022-09-24T11:26:58.102Z,18.04
2022-09-24T11:30:13.478Z,22.68
2022-09-24T11:33:52.372Z,24.77
2022-09-24T11:43:51.051Z,26.62
2022-09-24T11:47:14.078Z,25.42
2022-09-24T11:50:09.051Z,24.23
2022-09-24T11:53:04.054Z,25.99
2022-09-24T11:56:29.771Z,26.03
2022-09-24T12:04:05.090Z,27.94
2022-09-24T12:07:00.993Z,27.16
2022-09-24T12:10:04.990Z,28.05
2022-09-24T12:12:50.202Z,28.76
2022-09-24T12:15:34.027Z,28.61
2022-09-24T12:18:57.030Z,29.15
2022-09-24T12:21:48.012Z,29.76
2022-09-24T12:24:41.024Z,29.11
2022-09-24T12:27:45.012Z,30.41
2022-09-24T12:31:00.243Z,30.14
2022-09-24T12:34:09.025Z,29.88
2022-09-24T12:37:05.987Z,30.10
2022-09-24T12:39:57.728Z,30.42
2022-09-24T12:42:57.012Z,28.73
2022-09-24T12:45:37.089Z,29.62
2022-09-24T12:48:31.992Z,30.12
2022-09-24T12:51:21.010Z,28.81
2022-09-24T12:54:34.992Z,29.49
2022-09-24T12:57:27.057Z,28.89
2022-09-24T13:00:38.948Z,29.12
2022-09-24T13:03:37.109Z,28.71
2022-09-24T13:06:43.944Z,29.03
2022-09-24T13:09:42.947Z,29.03
2022-09-24T13:12:33.249Z,29.54
2022-09-24T13:15:35.056Z,29.64
2022-09-24T13:18:25.130Z,30.42
2022-09-24T13:21:17.962Z,30.48
2022-09-24T13:23:58.464Z,30.00
2022-09-24T13:26:46.899Z,29.46
2022-09-24T13:29:44.963Z,30.22
2022-09-24T13:32:35.943Z,30.20
2022-09-24T13:35:29.364Z,29.22
2022-09-24T13:38:30.919Z,31.08
2022-09-24T13:41:32.897Z,31.45
2022-09-24T13:44:29.999Z,31.35
2022-09-24T13:47:49.939Z,30.27
2022-09-24T13:50:38.894Z,29.70
2022-09-24T13:53:45.349Z,29.87
2022-09-24T13:56:32.926Z,28.96
2022-09-24T13:59:17.998Z,29.13
2022-09-24T14:02:04.926Z,30.63
2022-09-24T14:04:52.916Z,30.24
2022-09-24T14:07:39.987Z,29.42
2022-09-24T14:10:20.973Z,29.69
2022-09-24T14:13:30.953Z,29.65
2022-09-24T14:16:16.307Z,29.92
2022-09-24T14:19:12.915Z,30.71
2022-09-24T14:22:03.875Z,31.72
2022-09-24T14:24:59.886Z,31.29
2022-09-24T14:28:01.887Z,30.62
2022-09-24T14:30:55.534Z,30.83
2022-09-24T14:33:46.899Z,31.09
2022-09-24T14:36:29.318Z,32.18
2022-09-24T14:39:18.889Z,31.67
2022-09-24T14:41:59.322Z,31.69
2022-09-24T14:44:45.842Z,31.04
2022-09-24T14:47:29.086Z,31.11
2022-09-24T14:50:16.815Z,30.54
2022-09-24T14:53:04.870Z,30.72
2022-09-24T14:55:49.793Z,31.02
2022-09-24T14:58:36.847Z,32.43
2022-09-24T15:01:32.927Z,32.17
2022-09-24T15:04:29.862Z,31.95
2022-09-24T15:07:09.916Z,31.28
2022-09-24T15:10:02.969Z,30.90
2022-09-24T15:28:03.505Z,33.52
2022-09-24T15:30:44.924Z,34.49
2022-09-24T15:33:31.470Z,33.66
2022-09-24T15:36:18.487Z,34.50
2022-09-24T15:39:06.522Z,34.37
2022-09-24T15:41:47.055Z,34.42
2022-09-24T15:44:39.519Z,35.34
2022-09-24T15:47:26.567Z,35.35
2022-09-24T15:50:06.520Z,34.36
2022-09-24T15:52:51.597Z,36.07
2022-09-24T15:55:38.462Z,35.14
2022-09-24T15:58:19.744Z,34.76
2022-09-24T16:01:06.492Z,35.03
2022-09-24T16:03:46.910Z,35.85
2022-09-24T16:06:33.477Z,35.89
2022-09-24T16:09:20.499Z,36.18
2022-09-24T16:12:01.073Z,36.13
2022-09-24T16:14:47.464Z,36.42
2022-09-24T16:17:27.672Z,36.99
2022-09-24T16:20:16.458Z,37.25
2022-09-24T16:22:56.555Z,37.91
2022-09-24T16:25:43.465Z,37.94
2022-09-24T16:28:30.477Z,37.81
2022-09-24T16:31:10.862Z,38.50
2022-09-24T16:33:57.424Z,39.14
2022-09-24T16:36:38.332Z,39.07
2022-09-24T16:39:26.441Z,39.20
2022-09-24T16:42:06.795Z,40.11
2022-09-24T16:44:56.410Z,39.75
2022-09-24T16:47:43.451Z,40.24
2022-09-24T16:50:33.406Z,41.42
2022-09-24T16:53:13.759Z,42.24
2022-09-24T16:56:00.429Z,41.98
2022-09-24T16:58:57.429Z,43.58
2022-09-24T17:01:46.590Z,43.57
2022-09-24T17:04:34.259Z,42.74
2022-09-24T17:07:14.811Z,42.96
2022-09-24T17:10:19.442Z,43.27
2022-09-24T17:13:07.527Z,43.82
2022-09-24T17:15:47.650Z,43.06
2022-09-24T17:18:34.399Z,43.79
2022-09-24T17:21:18.075Z,43.35
2022-09-24T17:24:04.373Z,43.51
2022-09-24T17:26:58.406Z,43.79
2022-09-24T17:29:38.746Z,44.76
2022-09-24T17:32:25.391Z,44.59
2022-09-24T17:35:07.932Z,46.08
2022-09-24T17:37:54.380Z,45.54
2022-09-24T17:40:34.779Z,45.40
2022-09-24T17:43:21.355Z,44.33
2022-09-24T17:46:13.875Z,44.82
2022-09-24T17:48:59.561Z,44.93
2022-09-24T17:51:46.309Z,45.04
2022-09-24T17:54:33.343Z,45.50
2022-09-24T17:57:21.248Z,43.90
2022-09-24T18:00:01.348Z,45.03
2022-09-24T18:02:51.372Z,45.31
2022-09-24T18:05:31.491Z,44.69
2022-09-24T18:08:18.323Z,44.43
2022-09-24T18:11:15.316Z,46.20
2022-09-24T18:14:12.326Z,46.47
2022-09-24T18:16:52.932Z,47.25
2022-09-24T18:19:39.366Z,47.17
2022-09-24T18:22:26.336Z,47.40
2022-09-24T18:25:07.227Z,46.04
2022-09-24T18:27:54.310Z,44.77
2022-09-24T18:30:34.413Z,45.85
2022-09-24T18:33:22.325Z,44.90
2022-09-24T18:36:09.310Z,45.20
2022-09-24T18:38:49.882Z,45.25
2022-09-24T18:41:42.546Z,45.23
2022-09-24T18:44:22.714Z,45.97
2022-09-24T18:47:09.437Z,45.35
2022-09-24T18:49:56.293Z,45.46
2022-09-24T18:52:43.328Z,47.20
2022-09-24T18:55:23.666Z,47.24
2022-09-24T18:58:12.294Z,49.11
2022-09-24T19:01:04.409Z,47.87
2022-09-24T19:03:46.269Z,47.77
2022-09-24T19:06:28.134Z,48.24
2022-09-24T19:09:15.256Z,49.20
2022-09-24T19:11:56.085Z,49.19
2022-09-24T19:14:43.244Z,49.00
2022-09-24T19:17:23.936Z,48.92
2022-09-24T19:20:11.327Z,49.09
2022-09-24T19:22:59.941Z,48.70
2022-09-24T19:25:50.230Z,48.62
2022-09-24T19:28:37.382Z,47.39
2022-09-24T19:31:43.276Z,47.10
2022-09-24T19:34:23.712Z,47.85
2022-09-24T19:37:10.262Z,47.92
2022-09-24T19:39:51.007Z,48.25
2022-09-24T19:42:38.219Z,48.31
2022-09-24T19:45:18.662Z,49.88
2022-09-24T19:48:06.225Z,49.70
2022-09-24T19:50:46.625Z,49.56
2022-09-24T19:53:34.210Z,50.08
2022-09-24T19:56:23.285Z,50.52
2022-09-24T19:59:12.204Z,51.19
2022-09-24T20:01:52.700Z,52.97
2022-09-24T20:04:41.205Z,51.77
2022-09-24T20:07:28.215Z,52.60
2022-09-24T20:10:08.325Z,53.25
2022-09-24T20:12:58.194Z,53.16
2022-09-24T20:15:45.233Z,53.22
2022-09-24T20:18:25.969Z,53.53
2022-09-24T20:21:19.228Z,55.28
2022-09-24T20:24:08.304Z,55.04
2022-09-24T20:27:06.735Z,55.61
2022-09-24T20:29:55.179Z,57.00
2022-09-24T20:32:35.287Z,56.76
2022-09-24T20:35:22.203Z,57.17
2022-09-24T20:38:02.308Z,58.05
2022-09-24T20:40:50.184Z,58.50
2022-09-24T20:43:32.166Z,58.68
2022-09-24T20:46:23.221Z,58.54
2022-09-24T20:49:13.166Z,58.45
2022-09-24T20:51:57.386Z,58.28
2022-09-24T20:54:44.094Z,57.00
2022-09-24T20:57:31.167Z,56.20
2022-09-24T21:00:14.506Z,55.31
2022-09-24T21:03:10.735Z,54.16
2022-09-24T21:06:13.147Z,53.95
2022-09-24T21:09:00.142Z,54.56
2022-09-24T21:11:48.138Z,55.67
2022-09-24T21:14:28.980Z,56.75
2022-09-24T21:17:17.104Z,56.77
2022-09-24T21:20:04.674Z,56.21
2022-09-24T21:22:45.162Z,56.20
2022-09-24T21:25:52.361Z,58.45
2022-09-24T21:28:32.145Z,58.24
2022-09-24T21:31:14.097Z,58.98
2022-09-24T21:34:03.138Z,60.14
2022-09-24T21:36:52.224Z,59.86
2022-09-24T21:39:32.209Z,60.19
2022-09-24T21:42:19.101Z,60.62
2022-09-24T21:44:59.156Z,60.72
2022-09-24T21:47:46.101Z,60.70
2022-09-24T21:50:26.764Z,60.32
2022-09-24T21:53:15.079Z,60.20
2022-09-24T21:55:55.166Z,58.77
2022-09-24T21:58:42.087Z,57.87
2022-09-24T22:01:28.325Z,58.51
2022-09-24T22:04:15.086Z,59.32
2022-09-24T22:06:55.222Z,58.37
2022-09-24T22:09:42.017Z,59.83
2022-09-24T22:12:29.043Z,60.47
2022-09-24T22:15:17.042Z,60.48
2022-09-24T22:18:04.024Z,60.86
2022-09-24T22:20:51.107Z,61.21
2022-09-24T22:23:31.174Z,60.95
2022-09-24T22:26:20.054Z,61.46
2022-09-24T22:29:08.150Z,62.08
2022-09-24T22:31:48.014Z,64.23
2022-09-24T22:34:47.218Z,64.81
2022-09-24T22:37:34.024Z,65.88
2022-09-24T22:40:22.097Z,66.84
2022-09-24T22:43:02.081Z,66.25
2022-09-24T22:45:50.040Z,66.00
2022-09-24T22:48:30.131Z,66.82
2022-09-24T22:51:16.977Z,67.57
2022-09-24T22:54:04.113Z,66.98
2022-09-24T22:56:50.994Z,67.85
2022-09-24T22:59:37.995Z,68.36
2022-09-24T23:02:24.950Z,69.01
2022-09-24T23:05:12.050Z,68.30
2022-09-24T23:07:58.984Z,70.32
2022-09-24T23:10:39.078Z,70.24
2022-09-24T23:13:25.980Z,70.35
2022-09-24T23:16:15.093Z,71.24
2022-09-24T23:19:03.980Z,71.34
2022-09-24T23:21:44.228Z,72.12
2022-09-24T23:24:30.983Z,71.96
2022-09-24T23:27:24.959Z,72.55
2022-09-24T23:30:06.031Z,72.76
2022-09-24T23:32:52.941Z,72.24
2022-09-24T23:35:33.311Z,72.50
2022-09-24T23:38:19.942Z,72.58
2022-09-24T23:41:00.790Z,72.18
2022-09-24T23:43:47.937Z,72.02
2022-09-24T23:46:34.979Z,71.68
2022-09-24T23:49:22.040Z,71.20
2022-09-24T23:52:08.956Z,70.19
2022-09-24T23:54:55.879Z,69.84
2022-09-24T23:57:36.334Z,68.19
